NOAA Web Site Link Tides and Currents Home Page Transparent placeholder image

PORTS® Data Listing: 8551762 Delaware City, DE

CO-OPS RAW PORTS DATA

************************      PRELIMINARY DATA      ************************** 

     THIS RAW DATA HAS NOT BEEN SUBJECT TO THE NATIONAL OCEAN SERVICE'S        
     QUALITY CONTROL OR QUALITY ASSURANCE PROCEDURES AND DOES NOT MEET         
     THE CRITERIA AND STANDARDS OF OFFICIAL NATIONAL OCEAN SERVICE             
     DATA.  IT IS RELEASED FOR LIMITED PUBLIC USE AS PRELIMINARY DATA TO       
     BE USED ONLY WITH APPROPRIATE CAUTION.                                    

************************      PRELIMINARY DATA      ************************** 


       CD   -   Calendar date
       T    -   Time
       TZ   -   Timezone
       PW   -   Predicted water level (feet above MLLW)
       OW   -   Observed water level (feet above MLLW)
       WS   -   Wind speed (knots)
       WD   -   Wind direction (degrees true)
       WG   -   Wind gust (knots)
       AT   -   Air temperature (degrees farenheit)
       WT   -   Water temperature (degrees farenheit)
       AP   -   Air pressure (millibars)
       SA   -   Salinty (PSU - Practical Salinity Units)
       SG   -   Specific gravity
       RH   -   Relative humidity
       AG   -   Air gap (feet)
       VI   -   Visibility (nautical miles)

       ** NOTE **
       A variable that has its data fields filled with "9"s, indicates that
       data was not collected for that sample period.
       **********


STATION NAME: Delaware City (8551762)
****************************************************************************************************
    CD       T    TZ    PW     OW    WS   WD   WG    AT    WT    AP    SA    SG     RH    AG   VI
****************************************************************************************************
2018/10/18 22:00 EDT    4.15   3.29    4  264    5  46.9  57.6 1028.6 -9.9 -9.999 -99.9 -99.99 -9.99
2018/10/18 22:06 EDT    4.04   3.18    4  251    5  46.8  57.7 1028.6 -9.9 -9.999 -99.9 -99.99 -9.99
2018/10/18 22:12 EDT    3.93   3.07    4  261    5  47.1  57.7 1028.6 -9.9 -9.999 -99.9 -99.99 -9.99
2018/10/18 22:18 EDT    3.81   2.96    4  249    5  46.9  56.8 1028.6 -9.9 -9.999 -99.9 -99.99 -9.99
2018/10/18 22:24 EDT    3.70   2.85    3  240    5  46.6  56.8 1028.6 -9.9 -9.999 -99.9 -99.99 -9.99
2018/10/18 22:30 EDT    3.59   2.73    4  254    5  46.4  57.2 1028.6 -9.9 -9.999 -99.9 -99.99 -9.99
2018/10/18 22:36 EDT    3.48   2.63    5  256    6  46.2  57.0 1028.6 -9.9 -9.999 -99.9 -99.99 -9.99
2018/10/18 22:42 EDT    3.38   2.52    4  257    6  45.9  56.7 1028.6 -9.9 -9.999 -99.9 -99.99 -9.99
2018/10/18 22:48 EDT    3.27   2.40    4  253    5  45.5  56.5 1028.6 -9.9 -9.999 -99.9 -99.99 -9.99
2018/10/18 22:54 EDT    3.17   2.31    4  264    5  46.0  56.8 1028.6 -9.9 -9.999 -99.9 -99.99 -9.99
2018/10/18 23:00 EDT    3.07   2.20    5  256    6  45.7  56.7 1028.6 -9.9 -9.999 -99.9 -99.99 -9.99
2018/10/18 23:06 EDT    2.97   2.09    5  257    6  45.9  56.5 1028.6 -9.9 -9.999 -99.9 -99.99 -9.99
2018/10/18 23:12 EDT    2.87   1.98    4  248    5  45.3  56.5 1028.6 -9.9 -9.999 -99.9 -99.99 -9.99
2018/10/18 23:18 EDT    2.77   1.87    4  250    5  45.1  57.0 1028.5 -9.9 -9.999 -99.9 -99.99 -9.99
2018/10/18 23:24 EDT    2.68   1.78    5  250    5  45.7  57.0 1028.6 -9.9 -9.999 -99.9 -99.99 -9.99
2018/10/18 23:30 EDT    2.59   1.68    4  251    6  45.3  57.2 1028.5 -9.9 -9.999 -99.9 -99.99 -9.99
2018/10/18 23:36 EDT    2.50   1.58    4  261    6  45.3  57.4 1028.4 -9.9 -9.999 -99.9 -99.99 -9.99
2018/10/18 23:42 EDT    2.42   1.49    5  258    6  45.3  57.6 1028.4 -9.9 -9.999 -99.9 -99.99 -9.99
2018/10/18 23:48 EDT    2.33   1.39    5  255    7  45.0  57.4 1028.4 -9.9 -9.999 -99.9 -99.99 -9.99
2018/10/18 23:54 EDT    2.25   1.30    5  254    7  45.3  57.4 1028.3 -9.9 -9.999 -99.9 -99.99 -9.99
2018/10/19 00:00 EDT    2.16   1.18    5  256    6  44.8  57.4 1028.2 -9.9 -9.999 -99.9 -99.99 -9.99
2018/10/19 00:06 EDT    2.08   1.10    5  250    6  44.4  57.4 1028.3 -9.9 -9.999 -99.9 -99.99 -9.99
2018/10/19 00:12 EDT    2.00   1.02    5  251    6  44.2  57.4 1028.3 -9.9 -9.999 -99.9 -99.99 -9.99
2018/10/19 00:18 EDT    1.93   0.93    5  254    6  44.1  57.4 1028.2 -9.9 -9.999 -99.9 -99.99 -9.99
2018/10/19 00:24 EDT    1.85   0.83    4  244    6  43.7  57.4 1028.3 -9.9 -9.999 -99.9 -99.99 -9.99
2018/10/19 00:30 EDT    1.77   0.75    4  237    6  43.5  57.4 1028.3 -9.9 -9.999 -99.9 -99.99 -9.99
2018/10/19 00:36 EDT    1.70   0.68    4  244    6  43.7  57.2 1028.3 -9.9 -9.999 -99.9 -99.99 -9.99
2018/10/19 00:42 EDT    1.62   0.59    4  244    5  43.5  57.2 1028.3 -9.9 -9.999 -99.9 -99.99 -9.99
2018/10/19 00:48 EDT    1.55   0.51    3  231    5  43.2  57.2 1028.3 -9.9 -9.999 -99.9 -99.99 -9.99
2018/10/19 00:54 EDT    1.48   0.44    3  249    5  42.6  57.2 1028.3 -9.9 -9.999 -99.9 -99.99 -9.99
2018/10/19 01:00 EDT    1.41   0.37    3  234    4  42.6  57.0 1028.3 -9.9 -9.999 -99.9 -99.99 -9.99
2018/10/19 01:06 EDT    1.34   0.31    3  233    5  42.1  57.0 1028.4 -9.9 -9.999 -99.9 -99.99 -9.99
2018/10/19 01:12 EDT    1.28   0.24    3  239    5  41.9  57.0 1028.3 -9.9 -9.999 -99.9 -99.99 -9.99
2018/10/19 01:18 EDT    1.22   0.18    4  232    5  42.1  57.0 1028.4 -9.9 -9.999 -99.9 -99.99 -9.99
2018/10/19 01:24 EDT    1.16   0.11    4  237    5  42.1  57.0 1028.3 -9.9 -9.999 -99.9 -99.99 -9.99
2018/10/19 01:30 EDT    1.10   0.05    3  240    5  42.4  57.0 1028.3 -9.9 -9.999 -99.9 -99.99 -9.99
2018/10/19 01:36 EDT    1.05  -0.00    3  243    4  43.0  56.8 1028.3 -9.9 -9.999 -99.9 -99.99 -9.99
2018/10/19 01:42 EDT    1.00  -0.07    3  239    5  43.2  56.8 1028.2 -9.9 -9.999 -99.9 -99.99 -9.99
2018/10/19 01:48 EDT    0.96  -0.12    4  237    5  42.4  56.8 1028.2 -9.9 -9.999 -99.9 -99.99 -9.99
2018/10/19 01:54 EDT    0.93  -0.16    4  249    6  42.4  56.8 1028.2 -9.9 -9.999 -99.9 -99.99 -9.99
2018/10/19 02:00 EDT    0.90  -0.21    4  245    6  42.6  56.8 1028.2 -9.9 -9.999 -99.9 -99.99 -9.99
2018/10/19 02:06 EDT    0.88  -0.23    5  250    6  42.8  56.8 1028.2 -9.9 -9.999 -99.9 -99.99 -9.99
2018/10/19 02:12 EDT    0.86  -0.25    5  249    6  42.8  56.7 1028.2 -9.9 -9.999 -99.9 -99.99 -9.99
2018/10/19 02:18 EDT    0.86  -0.27    4  250    6  43.2  56.7 1028.2 -9.9 -9.999 -99.9 -99.99 -9.99
2018/10/19 02:24 EDT    0.86  -0.28    4  253    6  43.3  56.7 1028.2 -9.9 -9.999 -99.9 -99.99 -9.99
2018/10/19 02:30 EDT    0.87  -0.27    4  249    5  43.2  56.5 1028.1 -9.9 -9.999 -99.9 -99.99 -9.99
2018/10/19 02:36 EDT    0.89  -0.24    4  248    5  43.2  56.5 1028.1 -9.9 -9.999 -99.9 -99.99 -9.99
2018/10/19 02:42 EDT    0.92  -0.22    4  252    5  43.2  56.5 1028.1 -9.9 -9.999 -99.9 -99.99 -9.99
2018/10/19 02:48 EDT    0.96  -0.18    4  251    6  43.2  56.3 1028.1 -9.9 -9.999 -99.9 -99.99 -9.99
2018/10/19 02:54 EDT    1.00  -0.10    4  251    5  42.8  56.3 1028.0 -9.9 -9.999 -99.9 -99.99 -9.99
2018/10/19 03:00 EDT    1.06  -0.03    4  251    5  42.8  56.3 1028.1 -9.9 -9.999 -99.9 -99.99 -9.99
2018/10/19 03:06 EDT    1.12   0.07    3  261    4  42.8  56.3 1028.1 -9.9 -9.999 -99.9 -99.99 -9.99
2018/10/19 03:12 EDT    1.19   0.17    3  266    4  42.6  56.3 1028.0 -9.9 -9.999 -99.9 -99.99 -9.99
2018/10/19 03:18 EDT    1.27   0.29    3  263    4  42.6  56.3 1028.0 -9.9 -9.999 -99.9 -99.99 -9.99
2018/10/19 03:24 EDT    1.36   0.41    3  267    4  42.6  56.5 1028.0 -9.9 -9.999 -99.9 -99.99 -9.99
2018/10/19 03:30 EDT    1.45   0.55    3  265    4  42.4  56.5 1028.1 -9.9 -9.999 -99.9 -99.99 -9.99
2018/10/19 03:36 EDT    1.55   0.68    3  258    4  42.4  56.7 1028.0 -9.9 -9.999 -99.9 -99.99 -9.99
2018/10/19 03:42 EDT    1.65   0.83    2  259    4  42.1  56.7 1028.0 -9.9 -9.999 -99.9 -99.99 -9.99
2018/10/19 03:48 EDT    1.76   0.98    3  266    4  42.1  56.5 1028.0 -9.9 -9.999 -99.9 -99.99 -9.99
2018/10/19 03:54 EDT    1.86   1.14    3  256    4  42.3  56.5 1028.1 -9.9 -9.999 -99.9 -99.99 -9.99
2018/10/19 04:00 EDT    1.97   1.29    2  274    4  42.3  56.5 1028.1 -9.9 -9.999 -99.9 -99.99 -9.99
2018/10/19 04:06 EDT    2.09   1.45    2  263    3  42.1  56.5 1028.1 -9.9 -9.999 -99.9 -99.99 -9.99
2018/10/19 04:12 EDT    2.20   1.60    2  271    3  41.9  56.5 1028.0 -9.9 -9.999 -99.9 -99.99 -9.99
2018/10/19 04:18 EDT    2.31   1.75    2  274    3  42.1  56.5 1028.0 -9.9 -9.999 -99.9 -99.99 -9.99
2018/10/19 04:24 EDT    2.43   1.89    2  270    4  42.1  56.5 1027.9 -9.9 -9.999 -99.9 -99.99 -9.99
2018/10/19 04:30 EDT    2.54   2.03    3  268    3  42.1  56.5 1027.9 -9.9 -9.999 -99.9 -99.99 -9.99
2018/10/19 04:36 EDT    2.65   2.17    3  278    4  42.3  56.7 1027.9 -9.9 -9.999 -99.9 -99.99 -9.99
2018/10/19 04:42 EDT    2.76   2.30    3  267    4  42.3  56.7 1028.0 -9.9 -9.999 -99.9 -99.99 -9.99
2018/10/19 04:48 EDT    2.87   2.43    4  261    5  42.1  56.5 1028.0 -9.9 -9.999 -99.9 -99.99 -9.99
2018/10/19 04:54 EDT    2.97   2.56    4  247    6  42.1  56.5 1028.1 -9.9 -9.999 -99.9 -99.99 -9.99
2018/10/19 05:00 EDT    3.08   2.68    3  231    5  42.1  56.5 1028.0 -9.9 -9.999 -99.9 -99.99 -9.99
2018/10/19 05:06 EDT    3.18   2.81    3  237    5  41.5  56.5 1027.9 -9.9 -9.999 -99.9 -99.99 -9.99
2018/10/19 05:12 EDT    3.28   2.95    3  231    5  41.0  56.3 1027.9 -9.9 -9.999 -99.9 -99.99 -9.99
2018/10/19 05:18 EDT    3.37   3.07    3  244    4  41.4  56.3 1027.9 -9.9 -9.999 -99.9 -99.99 -9.99
2018/10/19 05:24 EDT    3.47   3.19    4  244    5  41.9  56.3 1027.9 -9.9 -9.999 -99.9 -99.99 -9.99
2018/10/19 05:30 EDT    3.56   3.32    4  262    4  42.1  56.3 1028.0 -9.9 -9.999 -99.9 -99.99 -9.99
2018/10/19 05:36 EDT    3.66   3.47    3  271    5  42.6  56.3 1028.0 -9.9 -9.999 -99.9 -99.99 -9.99
2018/10/19 05:42 EDT    3.75   3.57    3  267    5  42.8  56.3 1028.1 -9.9 -9.999 -99.9 -99.99 -9.99
2018/10/19 05:48 EDT    3.84   3.69    4  262    5  42.6  56.3 1028.1 -9.9 -9.999 -99.9 -99.99 -9.99
2018/10/19 05:54 EDT    3.93   3.83    3  269    6  43.0  56.3 1028.1 -9.9 -9.999 -99.9 -99.99 -9.99
2018/10/19 06:00 EDT    4.02   3.95    3  271    6  42.8  56.3 1028.1 -9.9 -9.999 -99.9 -99.99 -9.99
2018/10/19 06:06 EDT    4.11   4.08    3  258    5  42.3  56.5 1028.0 -9.9 -9.999 -99.9 -99.99 -9.99
2018/10/19 06:12 EDT    4.20   4.19    4  254    5  42.1  56.7 1027.9 -9.9 -9.999 -99.9 -99.99 -9.99
2018/10/19 06:18 EDT    4.29   4.30    3  255    4  41.7  56.8 1027.9 -9.9 -9.999 -99.9 -99.99 -9.99
2018/10/19 06:24 EDT    4.38   4.40    3  246    4  41.5  56.8 1027.9 -9.9 -9.999 -99.9 -99.99 -9.99
2018/10/19 06:30 EDT    4.46   4.51    2  271    4  41.7  57.0 1028.0 -9.9 -9.999 -99.9 -99.99 -9.99
2018/10/19 06:36 EDT    4.55   4.60    2  256    4  41.5  57.2 1028.0 -9.9 -9.999 -99.9 -99.99 -9.99
2018/10/19 06:42 EDT    4.64   4.72    3  263    5  41.9  57.2 1027.9 -9.9 -9.999 -99.9 -99.99 -9.99
2018/10/19 06:48 EDT    4.72   4.83    4  275    5  42.4  57.4 1028.0 -9.9 -9.999 -99.9 -99.99 -9.99
2018/10/19 06:54 EDT    4.80   4.91    3  263    6  42.4  57.4 1027.9 -9.9 -9.999 -99.9 -99.99 -9.99
2018/10/19 07:00 EDT    4.88   5.00    4  272    5  42.3  57.2 1027.9 -9.9 -9.999 -99.9 -99.99 -9.99
2018/10/19 07:06 EDT    4.95   5.07    3  268    5  42.3  57.2 1027.9 -9.9 -9.999 -99.9 -99.99 -9.99
2018/10/19 07:12 EDT    5.02   5.14    3  264    4  42.1  57.2 1027.9 -9.9 -9.999 -99.9 -99.99 -9.99
2018/10/19 07:18 EDT    5.09   5.20    3  256    5  42.3  57.0 1027.9 -9.9 -9.999 -99.9 -99.99 -9.99
2018/10/19 07:24 EDT    5.15   5.24    2  257    4  42.1  57.0 1027.9 -9.9 -9.999 -99.9 -99.99 -9.99
2018/10/19 07:30 EDT    5.20   5.32    3  236    4  41.9  57.0 1028.0 -9.9 -9.999 -99.9 -99.99 -9.99
2018/10/19 07:36 EDT    5.25   5.37    3  253    5  41.7  57.0 1027.9 -9.9 -9.999 -99.9 -99.99 -9.99
2018/10/19 07:42 EDT    5.30   5.40    3  245    5  41.7  57.0 1027.9 -9.9 -9.999 -99.9 -99.99 -9.99
2018/10/19 07:48 EDT    5.33   5.44    4  262    5  42.4  57.0 1027.9 -9.9 -9.999 -99.9 -99.99 -9.99
2018/10/19 07:54 EDT    5.36   5.46    4  251    5  42.8  57.2 1028.0 -9.9 -9.999 -99.9 -99.99 -9.99
2018/10/19 08:00 EDT    5.38   5.49    4  234    6  42.3  57.2 1028.0 -9.9 -9.999 -99.9 -99.99 -9.99
2018/10/19 08:06 EDT    5.39   5.48    2  258    5  43.0  57.2 1028.0 -9.9 -9.999 -99.9 -99.99 -9.99
2018/10/19 08:12 EDT    5.40   5.47    4  250    5  43.5  57.2 1028.0 -9.9 -9.999 -99.9 -99.99 -9.99
2018/10/19 08:18 EDT    5.40   5.50    3  245    5  44.1  57.0 1028.0 -9.9 -9.999 -99.9 -99.99 -9.99
2018/10/19 08:24 EDT    5.39   5.47    3  248    5  44.8  57.2 1028.0 -9.9 -9.999 -99.9 -99.99 -9.99
2018/10/19 08:30 EDT    5.37   5.44    3  250    5  45.3  57.2 1028.1 -9.9 -9.999 -99.9 -99.99 -9.99
2018/10/19 08:36 EDT    5.34   5.40    4  246    7  45.9  57.2 1028.1 -9.9 -9.999 -99.9 -99.99 -9.99
2018/10/19 08:42 EDT    5.30   5.35    3  254    5  46.4  57.2 1028.0 -9.9 -9.999 -99.9 -99.99 -9.99
2018/10/19 08:48 EDT    5.26   5.30    3  242    6  46.8  57.2 1028.0 -9.9 -9.999 -99.9 -99.99 -9.99
2018/10/19 08:54 EDT    5.21   5.21    3  230    6  46.8  57.4 1027.9 -9.9 -9.999 -99.9 -99.99 -9.99
2018/10/19 09:00 EDT    5.15   5.14    3  252    6  46.9  57.4 1027.8 -9.9 -9.999 -99.9 -99.99 -9.99
2018/10/19 09:06 EDT    5.09   5.05    3  253    6  47.8  57.6 1027.8 -9.9 -9.999 -99.9 -99.99 -9.99
2018/10/19 09:12 EDT    5.01   4.94    4  238    6  48.2  57.6 1027.8 -9.9 -9.999 -99.9 -99.99 -9.99
2018/10/19 09:18 EDT    4.94   4.85    3  261    8  48.7  57.4 1027.8 -9.9 -9.999 -99.9 -99.99 -9.99
2018/10/19 09:24 EDT    4.86   4.74    3  271    6  49.5  57.4 1027.8 -9.9 -9.999 -99.9 -99.99 -9.99
2018/10/19 09:30 EDT    4.77   4.65    4  252    6  49.8  57.2 1027.8 -9.9 -9.999 -99.9 -99.99 -9.99
2018/10/19 09:36 EDT    4.68   4.53    3  271    6  50.2  57.2 1027.8 -9.9 -9.999 -99.9 -99.99 -9.99
2018/10/19 09:42 EDT    4.58   4.42    4  260    9  50.4  57.2 1027.7 -9.9 -9.999 -99.9 -99.99 -9.99
2018/10/19 09:48 EDT    4.48   4.32    1  256    6  51.3  57.2 1027.7 -9.9 -9.999 -99.9 -99.99 -9.99
2018/10/19 09:54 EDT    4.38   4.20    5  271    8  51.1  57.2 1027.6 -9.9 -9.999 -99.9 -99.99 -9.99
2018/10/19 10:00 EDT    4.27   4.09    4  271    7  51.3  57.2 1027.5 -9.9 -9.999 -99.9 -99.99 -9.99
2018/10/19 10:06 EDT    4.16   3.97    6  268    9  51.6  57.0 1027.5 -9.9 -9.999 -99.9 -99.99 -9.99
2018/10/19 10:12 EDT    4.05   3.83    5  282    9  52.0  57.0 1027.5 -9.9 -9.999 -99.9 -99.99 -9.99
2018/10/19 10:18 EDT    3.94   3.71    6  279   10  52.5  57.0 1027.4 -9.9 -9.999 -99.9 -99.99 -9.99
2018/10/19 10:24 EDT    3.83   3.60    7  265    9  52.7  57.2 1027.3 -9.9 -9.999 -99.9 -99.99 -9.99
2018/10/19 10:30 EDT    3.72   3.48    6  250    9  53.4  57.2 1027.2 -9.9 -9.999 -99.9 -99.99 -9.99
2018/10/19 10:36 EDT    3.61   3.35    5  265    8  53.8  57.0 1027.0 -9.9 -9.999 -99.9 -99.99 -9.99
2018/10/19 10:42 EDT    3.49   3.25    4  267    8  54.1  57.0 1027.0 -9.9 -9.999 -99.9 -99.99 -9.99
2018/10/19 10:48 EDT    3.38   3.15    4  265    7  54.7  57.0 1026.9 -9.9 -9.999 -99.9 -99.99 -9.99
2018/10/19 10:54 EDT    3.27   3.03    7  274    9  54.5  57.0 1026.8 -9.9 -9.999 -99.9 -99.99 -9.99
2018/10/19 11:00 EDT    3.16   2.93    6  272   12  54.5  57.0 1026.8 -9.9 -9.999 -99.9 -99.99 -9.99
2018/10/19 11:06 EDT    3.06   2.82    6  279   10  54.9  57.0 1026.7 -9.9 -9.999 -99.9 -99.99 -9.99
2018/10/19 11:12 EDT    2.95   2.72    5  276   10  55.4  56.8 1026.5 -9.9 -9.999 -99.9 -99.99 -9.99
2018/10/19 11:18 EDT    2.85   2.63    6  238    9  55.8  56.7 1026.5 -9.9 -9.999 -99.9 -99.99 -9.99
2018/10/19 11:24 EDT    2.75   2.52    5  264    9  55.9  56.8 1026.3 -9.9 -9.999 -99.9 -99.99 -9.99
2018/10/19 11:30 EDT    2.65   2.43    5  260   13  56.1  56.8 1026.3 -9.9 -9.999 -99.9 -99.99 -9.99
2018/10/19 11:36 EDT    2.55   2.35    5  269   10  56.5  56.8 1026.2 -9.9 -9.999 -99.9 -99.99 -9.99
2018/10/19 11:42 EDT    2.46   2.26    4  278    9  56.7  56.7 1026.0 -9.9 -9.999 -99.9 -99.99 -9.99
2018/10/19 11:48 EDT    2.37   2.17    5  268    9  56.8  56.7 1025.9 -9.9 -9.999 -99.9 -99.99 -9.99
2018/10/19 11:54 EDT    2.28   2.08    6  232   10  57.0  56.7 1025.9 -9.9 -9.999 -99.9 -99.99 -9.99
2018/10/19 12:00 EDT    2.20   2.00    6  245   10  57.2  56.8 1025.8 -9.9 -9.999 -99.9 -99.99 -9.99
2018/10/19 12:06 EDT    2.11   1.93    7  254   11  57.2  57.0 1025.6 -9.9 -9.999 -99.9 -99.99 -9.99
2018/10/19 12:12 EDT    2.03   1.85    5  227   12  57.6  57.2 1025.5 -9.9 -9.999 -99.9 -99.99 -9.99
2018/10/19 12:18 EDT    1.95   1.77    7  241   11  57.6  57.2 1025.3 -9.9 -9.999 -99.9 -99.99 -9.99
2018/10/19 12:24 EDT    1.88   1.69    4  251   10  58.5  57.2 1025.2 -9.9 -9.999 -99.9 -99.99 -9.99
2018/10/19 12:30 EDT    1.81   1.62    6  265   11  58.5  57.2 1025.0 -9.9 -9.999 -99.9 -99.99 -9.99
2018/10/19 12:36 EDT    1.73   1.54    6  246    9  59.0  57.4 1024.7 -9.9 -9.999 -99.9 -99.99 -9.99
2018/10/19 12:42 EDT    1.66   1.47    7  222   11  58.3  57.4 1024.5 -9.9 -9.999 -99.9 -99.99 -9.99
2018/10/19 12:48 EDT    1.60   1.41    4  246    8  59.2  57.4 1024.3 -9.9 -9.999 -99.9 -99.99 -9.99
2018/10/19 12:54 EDT    1.53   1.33    8  236   13  59.9  57.6 1024.1 -9.9 -9.999 -99.9 -99.99 -9.99
2018/10/19 13:00 EDT    1.47   1.26    6  259   11  59.4  57.7 1023.9 -9.9 -9.999 -99.9 -99.99 -9.99
2018/10/19 13:06 EDT    1.41   1.19    5  280   11  59.5  57.7 1023.7 -9.9 -9.999 -99.9 -99.99 -9.99
2018/10/19 13:12 EDT    1.35   1.13    5  198   11  60.4  57.6 1023.7 -9.9 -9.999 -99.9 -99.99 -9.99
2018/10/19 13:18 EDT    1.29   1.08    4  213    9  60.8  57.6 1023.5 -9.9 -9.999 -99.9 -99.99 -9.99
2018/10/19 13:24 EDT    1.23   1.03    7  209   11  60.6  57.6 1023.5 -9.9 -9.999 -99.9 -99.99 -9.99
2018/10/19 13:30 EDT    1.18   0.97    9  262   14  60.8  57.7 1023.3 -9.9 -9.999 -99.9 -99.99 -9.99
2018/10/19 13:36 EDT    1.13   0.92    4  232   10  61.5  57.7 1023.3 -9.9 -9.999 -99.9 -99.99 -9.99
2018/10/19 13:42 EDT    1.09   0.87    8  213   13  61.0  57.7 1023.1 -9.9 -9.999 -99.9 -99.99 -9.99
2018/10/19 13:48 EDT    1.05   0.83    7  227   12  61.0  57.6 1022.9 -9.9 -9.999 -99.9 -99.99 -9.99
2018/10/19 13:54 EDT    1.01   0.79    6  219   11  60.8  57.7 1022.6 -9.9 -9.999 -99.9 -99.99 -9.99
2018/10/19 14:00 EDT    0.98   0.74    6  256   12  60.4  57.6 1022.6 -9.9 -9.999 -99.9 -99.99 -9.99
2018/10/19 14:06 EDT    0.95   0.71    4  240   10  60.6  57.6 1022.2 -9.9 -9.999 -99.9 -99.99 -9.99
2018/10/19 14:12 EDT    0.93   0.69    3  238   10  61.0  57.6 1022.1 -9.9 -9.999 -99.9 -99.99 -9.99
2018/10/19 14:18 EDT    0.92   0.67    7  261   11  59.9  57.6 1021.9 -9.9 -9.999 -99.9 -99.99 -9.99
2018/10/19 14:24 EDT    0.91   0.65    8  230   11  59.7  57.6 1021.8 -9.9 -9.999 -99.9 -99.99 -9.99
2018/10/19 14:30 EDT    0.92   0.64    4  219    9  59.7  57.4 1021.6 -9.9 -9.999 -99.9 -99.99 -9.99
2018/10/19 14:36 EDT    0.92   0.64    8  230   10  59.5  57.4 1021.4 -9.9 -9.999 -99.9 -99.99 -9.99
2018/10/19 14:42 EDT    0.94   0.65    4  250    9  59.9  57.4 1021.4 -9.9 -9.999 -99.9 -99.99 -9.99
2018/10/19 14:48 EDT    0.97   0.68    6  243   11  60.4  57.4 1021.4 -9.9 -9.999 -99.9 -99.99 -9.99
2018/10/19 14:54 EDT    1.01   0.73    8  241   11  60.4  57.4 1021.4 -9.9 -9.999 -99.9 -99.99 -9.99
2018/10/19 15:00 EDT    1.05   0.80    5  247   10  61.3  57.4 1021.0 -9.9 -9.999 -99.9 -99.99 -9.99
2018/10/19 15:06 EDT    1.11   0.86    5  249   11  60.8  57.2 1020.7 -9.9 -9.999 -99.9 -99.99 -9.99
2018/10/19 15:12 EDT    1.17   0.93    6  255   12  61.0  57.2 1021.0 -9.9 -9.999 -99.9 -99.99 -9.99
2018/10/19 15:18 EDT    1.24   1.02    7  252   12  60.8  57.4 1020.9 -9.9 -9.999 -99.9 -99.99 -9.99
2018/10/19 15:24 EDT    1.32   1.12    7  232   12  60.1  57.2 1020.6 -9.9 -9.999 -99.9 -99.99 -9.99
2018/10/19 15:30 EDT    1.41   1.22    4  222   10  60.3  57.2 1020.5 -9.9 -9.999 -99.9 -99.99 -9.99
2018/10/19 15:36 EDT    1.51   1.33    4  249   11  60.3  57.2 1020.4 -9.9 -9.999 -99.9 -99.99 -9.99
2018/10/19 15:42 EDT    1.62   1.45    4  235    9  60.3  57.2 1020.3 -9.9 -9.999 -99.9 -99.99 -9.99
2018/10/19 15:48 EDT    1.73   1.57    6  237   10  60.8  57.2 1020.3 -9.9 -9.999 -99.9 -99.99 -9.99
2018/10/19 15:54 EDT    1.84   1.71    4  228   10  62.1  57.6 1020.1 -9.9 -9.999 -99.9 -99.99 -9.99
2018/10/19 16:00 EDT    1.97 -99.99 -999 -999 -999 -99.9 -99.9 -999.9 -9.9 -9.999 -99.9 -99.99 -9.99
2018/10/19 16:06 EDT    2.09 -99.99 -999 -999 -999 -99.9 -99.9 -999.9 -9.9 -9.999 -99.9 -99.99 -9.99
2018/10/19 16:12 EDT    2.22 -99.99 -999 -999 -999 -99.9 -99.9 -999.9 -9.9 -9.999 -99.9 -99.99 -9.99
2018/10/19 16:18 EDT    2.36 -99.99 -999 -999 -999 -99.9 -99.9 -999.9 -9.9 -9.999 -99.9 -99.99 -9.99
2018/10/19 16:24 EDT    2.49 -99.99 -999 -999 -999 -99.9 -99.9 -999.9 -9.9 -9.999 -99.9 -99.99 -9.99
2018/10/19 16:30 EDT    2.62 -99.99 -999 -999 -999 -99.9 -99.9 -999.9 -9.9 -9.999 -99.9 -99.99 -9.99
2018/10/19 16:36 EDT    2.76 -99.99 -999 -999 -999 -99.9 -99.9 -999.9 -9.9 -9.999 -99.9 -99.99 -9.99
2018/10/19 16:42 EDT    2.89 -99.99 -999 -999 -999 -99.9 -99.9 -999.9 -9.9 -9.999 -99.9 -99.99 -9.99
2018/10/19 16:48 EDT    3.03 -99.99 -999 -999 -999 -99.9 -99.9 -999.9 -9.9 -9.999 -99.9 -99.99 -9.99
2018/10/19 16:54 EDT    3.16 -99.99 -999 -999 -999 -99.9 -99.9 -999.9 -9.9 -9.999 -99.9 -99.99 -9.99
2018/10/19 17:00 EDT    3.29 -99.99 -999 -999 -999 -99.9 -99.9 -999.9 -9.9 -9.999 -99.9 -99.99 -9.99
2018/10/19 17:06 EDT    3.41 -99.99 -999 -999 -999 -99.9 -99.9 -999.9 -9.9 -9.999 -99.9 -99.99 -9.99
2018/10/19 17:12 EDT    3.53 -99.99 -999 -999 -999 -99.9 -99.9 -999.9 -9.9 -9.999 -99.9 -99.99 -9.99
2018/10/19 17:18 EDT    3.65 -99.99 -999 -999 -999 -99.9 -99.9 -999.9 -9.9 -9.999 -99.9 -99.99 -9.99
2018/10/19 17:24 EDT    3.77 -99.99 -999 -999 -999 -99.9 -99.9 -999.9 -9.9 -9.999 -99.9 -99.99 -9.99
2018/10/19 17:30 EDT    3.88 -99.99 -999 -999 -999 -99.9 -99.9 -999.9 -9.9 -9.999 -99.9 -99.99 -9.99
2018/10/19 17:36 EDT    3.99 -99.99 -999 -999 -999 -99.9 -99.9 -999.9 -9.9 -9.999 -99.9 -99.99 -9.99
2018/10/19 17:42 EDT    4.10 -99.99 -999 -999 -999 -99.9 -99.9 -999.9 -9.9 -9.999 -99.9 -99.99 -9.99
2018/10/19 17:48 EDT    4.20 -99.99 -999 -999 -999 -99.9 -99.9 -999.9 -9.9 -9.999 -99.9 -99.99 -9.99
2018/10/19 17:54 EDT    4.31 -99.99 -999 -999 -999 -99.9 -99.9 -999.9 -9.9 -9.999 -99.9 -99.99 -9.99
2018/10/19 18:00 EDT    4.40 -99.99 -999 -999 -999 -99.9 -99.9 -999.9 -9.9 -9.999 -99.9 -99.99 -9.99
2018/10/19 18:06 EDT    4.50 -99.99 -999 -999 -999 -99.9 -99.9 -999.9 -9.9 -9.999 -99.9 -99.99 -9.99
2018/10/19 18:12 EDT    4.59 -99.99 -999 -999 -999 -99.9 -99.9 -999.9 -9.9 -9.999 -99.9 -99.99 -9.99
2018/10/19 18:18 EDT    4.69 -99.99 -999 -999 -999 -99.9 -99.9 -999.9 -9.9 -9.999 -99.9 -99.99 -9.99
2018/10/19 18:24 EDT    4.78 -99.99 -999 -999 -999 -99.9 -99.9 -999.9 -9.9 -9.999 -99.9 -99.99 -9.99
2018/10/19 18:30 EDT    4.87 -99.99 -999 -999 -999 -99.9 -99.9 -999.9 -9.9 -9.999 -99.9 -99.99 -9.99
2018/10/19 18:36 EDT    4.95 -99.99 -999 -999 -999 -99.9 -99.9 -999.9 -9.9 -9.999 -99.9 -99.99 -9.99
2018/10/19 18:42 EDT    5.04 -99.99 -999 -999 -999 -99.9 -99.9 -999.9 -9.9 -9.999 -99.9 -99.99 -9.99
2018/10/19 18:48 EDT    5.12 -99.99 -999 -999 -999 -99.9 -99.9 -999.9 -9.9 -9.999 -99.9 -99.99 -9.99
2018/10/19 18:54 EDT    5.20 -99.99 -999 -999 -999 -99.9 -99.9 -999.9 -9.9 -9.999 -99.9 -99.99 -9.99
2018/10/19 19:00 EDT    5.28 -99.99 -999 -999 -999 -99.9 -99.9 -999.9 -9.9 -9.999 -99.9 -99.99 -9.99
2018/10/19 19:06 EDT    5.36 -99.99 -999 -999 -999 -99.9 -99.9 -999.9 -9.9 -9.999 -99.9 -99.99 -9.99
2018/10/19 19:12 EDT    5.44 -99.99 -999 -999 -999 -99.9 -99.9 -999.9 -9.9 -9.999 -99.9 -99.99 -9.99
2018/10/19 19:18 EDT    5.51 -99.99 -999 -999 -999 -99.9 -99.9 -999.9 -9.9 -9.999 -99.9 -99.99 -9.99
2018/10/19 19:24 EDT    5.58 -99.99 -999 -999 -999 -99.9 -99.9 -999.9 -9.9 -9.999 -99.9 -99.99 -9.99
2018/10/19 19:30 EDT    5.64 -99.99 -999 -999 -999 -99.9 -99.9 -999.9 -9.9 -9.999 -99.9 -99.99 -9.99
2018/10/19 19:36 EDT    5.70 -99.99 -999 -999 -999 -99.9 -99.9 -999.9 -9.9 -9.999 -99.9 -99.99 -9.99
2018/10/19 19:42 EDT    5.76 -99.99 -999 -999 -999 -99.9 -99.9 -999.9 -9.9 -9.999 -99.9 -99.99 -9.99
2018/10/19 19:48 EDT    5.81 -99.99 -999 -999 -999 -99.9 -99.9 -999.9 -9.9 -9.999 -99.9 -99.99 -9.99
2018/10/19 19:54 EDT    5.85 -99.99 -999 -999 -999 -99.9 -99.9 -999.9 -9.9 -9.999 -99.9 -99.99 -9.99
2018/10/19 20:00 EDT    5.89 -99.99 -999 -999 -999 -99.9 -99.9 -999.9 -9.9 -9.999 -99.9 -99.99 -9.99
2018/10/19 20:06 EDT    5.92 -99.99 -999 -999 -999 -99.9 -99.9 -999.9 -9.9 -9.999 -99.9 -99.99 -9.99
2018/10/19 20:12 EDT    5.94 -99.99 -999 -999 -999 -99.9 -99.9 -999.9 -9.9 -9.999 -99.9 -99.99 -9.99
2018/10/19 20:18 EDT    5.96 -99.99 -999 -999 -999 -99.9 -99.9 -999.9 -9.9 -9.999 -99.9 -99.99 -9.99
2018/10/19 20:24 EDT    5.97 -99.99 -999 -999 -999 -99.9 -99.9 -999.9 -9.9 -9.999 -99.9 -99.99 -9.99
2018/10/19 20:30 EDT    5.97 -99.99 -999 -999 -999 -99.9 -99.9 -999.9 -9.9 -9.999 -99.9 -99.99 -9.99
2018/10/19 20:36 EDT    5.96 -99.99 -999 -999 -999 -99.9 -99.9 -999.9 -9.9 -9.999 -99.9 -99.99 -9.99
2018/10/19 20:42 EDT    5.94 -99.99 -999 -999 -999 -99.9 -99.9 -999.9 -9.9 -9.999 -99.9 -99.99 -9.99
2018/10/19 20:48 EDT    5.92 -99.99 -999 -999 -999 -99.9 -99.9 -999.9 -9.9 -9.999 -99.9 -99.99 -9.99
2018/10/19 20:54 EDT    5.89 -99.99 -999 -999 -999 -99.9 -99.9 -999.9 -9.9 -9.999 -99.9 -99.99 -9.99
2018/10/19 21:00 EDT    5.85 -99.99 -999 -999 -999 -99.9 -99.9 -999.9 -9.9 -9.999 -99.9 -99.99 -9.99
2018/10/19 21:06 EDT    5.80 -99.99 -999 -999 -999 -99.9 -99.9 -999.9 -9.9 -9.999 -99.9 -99.99 -9.99
2018/10/19 21:12 EDT    5.74 -99.99 -999 -999 -999 -99.9 -99.9 -999.9 -9.9 -9.999 -99.9 -99.99 -9.99
2018/10/19 21:18 EDT    5.68 -99.99 -999 -999 -999 -99.9 -99.9 -999.9 -9.9 -9.999 -99.9 -99.99 -9.99
2018/10/19 21:24 EDT    5.61 -99.99 -999 -999 -999 -99.9 -99.9 -999.9 -9.9 -9.999 -99.9 -99.99 -9.99
2018/10/19 21:30 EDT    5.53 -99.99 -999 -999 -999 -99.9 -99.9 -999.9 -9.9 -9.999 -99.9 -99.99 -9.99
2018/10/19 21:36 EDT    5.45 -99.99 -999 -999 -999 -99.9 -99.9 -999.9 -9.9 -9.999 -99.9 -99.99 -9.99
2018/10/19 21:42 EDT    5.36 -99.99 -999 -999 -999 -99.9 -99.9 -999.9 -9.9 -9.999 -99.9 -99.99 -9.99
2018/10/19 21:48 EDT    5.27 -99.99 -999 -999 -999 -99.9 -99.9 -999.9 -9.9 -9.999 -99.9 -99.99 -9.99
2018/10/19 21:54 EDT    5.17 -99.99 -999 -999 -999 -99.9 -99.9 -999.9 -9.9 -9.999 -99.9 -99.99 -9.99
2018/10/19 22:00 EDT    5.07 -99.99 -999 -999 -999 -99.9 -99.9 -999.9 -9.9 -9.999 -99.9 -99.99 -9.99

Revised: 08/08/2018
NOAA / National Ocean Service
Web site owner: Center for Operational Oceanographic Products and Services